sensor_id;sensor_type;location;lat;lon;timestamp;P1;P2;P0
76238;PMS7003;65043;48.392;-4.472;2023-05-20T00:00:45;22.25;19.75;12.50
76238;PMS7003;65043;48.392;-4.472;2023-05-20T00:03:17;23.00;20.50;14.00
76238;PMS7003;65043;48.392;-4.472;2023-05-20T00:05:46;23.75;21.75;14.00
76238;PMS7003;65043;48.392;-4.472;2023-05-20T00:08:12;20.25;19.00;14.25
76238;PMS7003;65043;48.392;-4.472;2023-05-20T00:10:37;21.25;20.00;14.50
76238;PMS7003;65043;48.392;-4.472;2023-05-20T00:13:03;20.75;20.25;14.75
76238;PMS7003;65043;48.392;-4.472;2023-05-20T00:15:29;22.50;20.00;12.50
76238;PMS7003;65043;48.392;-4.472;2023-05-20T00:17:54;22.50;18.50;13.00
76238;PMS7003;65043;48.392;-4.472;2023-05-20T00:20:21;22.75;20.50;14.75
76238;PMS7003;65043;48.392;-4.472;2023-05-20T00:22:46;30.50;22.75;15.00
76238;PMS7003;65043;48.392;-4.472;2023-05-20T00:25:12;25.00;23.50;14.75
76238;PMS7003;65043;48.392;-4.472;2023-05-20T00:27:40;25.25;23.00;15.25
76238;PMS7003;65043;48.392;-4.472;2023-05-20T00:30:06;28.50;24.50;14.50
76238;PMS7003;65043;48.392;-4.472;2023-05-20T00:32:32;26.75;23.00;14.50
76238;PMS7003;65043;48.392;-4.472;2023-05-20T00:34:58;24.00;21.50;13.00
76238;PMS7003;65043;48.392;-4.472;2023-05-20T00:37:24;22.75;22.75;14.25
76238;PMS7003;65043;48.392;-4.472;2023-05-20T00:39:50;27.00;22.50;16.00
76238;PMS7003;65043;48.392;-4.472;2023-05-20T00:42:22;29.00;24.50;17.00
76238;PMS7003;65043;48.392;-4.472;2023-05-20T00:44:48;31.50;23.75;15.50
76238;PMS7003;65043;48.392;-4.472;2023-05-20T00:47:17;26.50;24.50;18.00
76238;PMS7003;65043;48.392;-4.472;2023-05-20T00:49:44;26.00;22.50;17.00
76238;PMS7003;65043;48.392;-4.472;2023-05-20T00:52:13;26.25;25.25;18.25
76238;PMS7003;65043;48.392;-4.472;2023-05-20T00:54:39;27.00;24.00;15.75
76238;PMS7003;65043;48.392;-4.472;2023-05-20T00:57:05;32.00;29.25;17.25
76238;PMS7003;65043;48.392;-4.472;2023-05-20T00:59:32;32.25;23.75;18.00
76238;PMS7003;65043;48.392;-4.472;2023-05-20T01:01:59;24.50;22.50;16.00
76238;PMS7003;65043;48.392;-4.472;2023-05-20T01:04:25;32.25;28.00;19.00
76238;PMS7003;65043;48.392;-4.472;2023-05-20T01:06:50;24.50;23.75;15.50
76238;PMS7003;65043;48.392;-4.472;2023-05-20T01:09:16;27.75;24.75;17.00
76238;PMS7003;65043;48.392;-4.472;2023-05-20T01:11:47;31.50;29.75;19.00
76238;PMS7003;65043;48.392;-4.472;2023-05-20T01:14:23;34.50;27.00;18.25
76238;PMS7003;65043;48.392;-4.472;2023-05-20T01:16:53;32.00;28.00;17.25
76238;PMS7003;65043;48.392;-4.472;2023-05-20T01:19:40;30.75;28.50;18.50
76238;PMS7003;65043;48.392;-4.472;2023-05-20T01:22:10;31.00;25.75;17.75
76238;PMS7003;65043;48.392;-4.472;2023-05-20T01:24:40;28.00;27.75;17.50
76238;PMS7003;65043;48.392;-4.472;2023-05-20T01:27:10;30.25;27.75;19.75
76238;PMS7003;65043;48.392;-4.472;2023-05-20T01:29:37;34.00;30.00;19.25
76238;PMS7003;65043;48.392;-4.472;2023-05-20T01:32:07;29.75;26.50;17.75
76238;PMS7003;65043;48.392;-4.472;2023-05-20T01:34:40;34.50;29.75;17.75
76238;PMS7003;65043;48.392;-4.472;2023-05-20T01:37:07;32.50;28.50;19.00
76238;PMS7003;65043;48.392;-4.472;2023-05-20T01:39:35;32.25;27.00;17.50
76238;PMS7003;65043;48.392;-4.472;2023-05-20T01:42:02;35.00;30.25;17.50
76238;PMS7003;65043;48.392;-4.472;2023-05-20T01:44:30;36.75;31.25;21.00
76238;PMS7003;65043;48.392;-4.472;2023-05-20T01:46:55;29.00;24.75;17.25
76238;PMS7003;65043;48.392;-4.472;2023-05-20T01:49:21;32.25;28.75;19.00
76238;PMS7003;65043;48.392;-4.472;2023-05-20T01:51:46;30.00;26.50;15.25
76238;PMS7003;65043;48.392;-4.472;2023-05-20T01:54:11;32.75;29.50;19.50
76238;PMS7003;65043;48.392;-4.472;2023-05-20T01:56:37;33.00;29.50;19.25
76238;PMS7003;65043;48.392;-4.472;2023-05-20T01:59:02;36.50;31.75;21.00
76238;PMS7003;65043;48.392;-4.472;2023-05-20T02:01:27;32.75;29.00;19.00
76238;PMS7003;65043;48.392;-4.472;2023-05-20T02:03:53;29.75;25.75;17.25
76238;PMS7003;65043;48.392;-4.472;2023-05-20T02:06:18;35.25;30.00;19.75
76238;PMS7003;65043;48.392;-4.472;2023-05-20T02:08:43;35.00;30.75;19.50
76238;PMS7003;65043;48.392;-4.472;2023-05-20T02:11:09;37.50;30.75;19.50
76238;PMS7003;65043;48.392;-4.472;2023-05-20T02:13:34;34.00;32.00;19.00
76238;PMS7003;65043;48.392;-4.472;2023-05-20T02:16:00;26.50;24.25;18.50
76238;PMS7003;65043;48.392;-4.472;2023-05-20T02:18:25;35.00;30.00;19.25
76238;PMS7003;65043;48.392;-4.472;2023-05-20T02:20:51;34.50;29.50;19.50
76238;PMS7003;65043;48.392;-4.472;2023-05-20T02:23:16;35.25;30.00;19.50
76238;PMS7003;65043;48.392;-4.472;2023-05-20T02:25:42;35.00;31.50;20.00
76238;PMS7003;65043;48.392;-4.472;2023-05-20T02:28:08;33.25;26.75;18.00
76238;PMS7003;65043;48.392;-4.472;2023-05-20T02:30:35;35.00;30.75;19.50
76238;PMS7003;65043;48.392;-4.472;2023-05-20T02:33:03;31.25;28.25;18.50
76238;PMS7003;65043;48.392;-4.472;2023-05-20T02:35:29;30.00;27.25;19.25
76238;PMS7003;65043;48.392;-4.472;2023-05-20T02:37:54;35.50;29.25;19.25
76238;PMS7003;65043;48.392;-4.472;2023-05-20T02:40:20;35.00;28.25;17.75
76238;PMS7003;65043;48.392;-4.472;2023-05-20T02:42:47;38.75;30.00;19.25
76238;PMS7003;65043;48.392;-4.472;2023-05-20T02:45:12;26.00;26.00;17.25
76238;PMS7003;65043;48.392;-4.472;2023-05-20T02:47:38;24.25;22.75;18.00
76238;PMS7003;65043;48.392;-4.472;2023-05-20T02:50:03;35.50;29.50;19.50
76238;PMS7003;65043;48.392;-4.472;2023-05-20T02:52:29;29.50;29.25;17.75
76238;PMS7003;65043;48.392;-4.472;2023-05-20T02:54:54;38.00;29.50;19.25
76238;PMS7003;65043;48.392;-4.472;2023-05-20T02:57:20;31.75;29.75;19.50
76238;PMS7003;65043;48.392;-4.472;2023-05-20T02:59:45;35.75;31.25;19.50
76238;PMS7003;65043;48.392;-4.472;2023-05-20T03:02:11;28.50;28.50;19.25
76238;PMS7003;65043;48.392;-4.472;2023-05-20T03:04:36;29.50;27.00;18.75
76238;PMS7003;65043;48.392;-4.472;2023-05-20T03:07:05;32.50;29.25;18.25
76238;PMS7003;65043;48.392;-4.472;2023-05-20T03:09:34;31.75;28.25;18.25
76238;PMS7003;65043;48.392;-4.472;2023-05-20T03:11:59;31.75;29.25;18.25
76238;PMS7003;65043;48.392;-4.472;2023-05-20T03:14:25;26.25;25.50;17.25
76238;PMS7003;65043;48.392;-4.472;2023-05-20T03:16:50;33.25;28.50;19.50
76238;PMS7003;65043;48.392;-4.472;2023-05-20T03:19:16;33.00;27.75;17.50
76238;PMS7003;65043;48.392;-4.472;2023-05-20T03:21:41;26.75;25.50;17.75
76238;PMS7003;65043;48.392;-4.472;2023-05-20T03:24:07;29.75;28.50;17.75
76238;PMS7003;65043;48.392;-4.472;2023-05-20T03:26:34;29.00;25.50;17.25
76238;PMS7003;65043;48.392;-4.472;2023-05-20T03:29:01;30.25;26.50;16.75
76238;PMS7003;65043;48.392;-4.472;2023-05-20T03:31:27;28.00;25.75;17.25
76238;PMS7003;65043;48.392;-4.472;2023-05-20T03:33:52;20.75;18.75;14.25
76238;PMS7003;65043;48.392;-4.472;2023-05-20T03:36:18;32.50;26.50;18.00
76238;PMS7003;65043;48.392;-4.472;2023-05-20T03:38:43;25.50;23.00;14.75
76238;PMS7003;65043;48.392;-4.472;2023-05-20T03:41:08;31.00;26.25;18.25
76238;PMS7003;65043;48.392;-4.472;2023-05-20T03:43:34;26.00;23.25;14.25
76238;PMS7003;65043;48.392;-4.472;2023-05-20T03:45:59;31.00;27.50;17.25
76238;PMS7003;65043;48.392;-4.472;2023-05-20T03:48:25;27.75;27.00;17.25
76238;PMS7003;65043;48.392;-4.472;2023-05-20T03:50:50;28.75;27.00;16.75
76238;PMS7003;65043;48.392;-4.472;2023-05-20T03:53:16;27.75;23.75;15.75
76238;PMS7003;65043;48.392;-4.472;2023-05-20T03:55:41;28.75;24.75;16.50
76238;PMS7003;65043;48.392;-4.472;2023-05-20T03:58:07;27.25;26.25;16.25
76238;PMS7003;65043;48.392;-4.472;2023-05-20T04:00:32;29.25;28.00;17.25
76238;PMS7003;65043;48.392;-4.472;2023-05-20T04:02:58;32.00;28.25;19.75
76238;PMS7003;65043;48.392;-4.472;2023-05-20T04:05:24;27.50;27.25;17.00
76238;PMS7003;65043;48.392;-4.472;2023-05-20T04:07:49;29.25;26.00;17.75
76238;PMS7003;65043;48.392;-4.472;2023-05-20T04:10:17;26.75;23.00;15.50
76238;PMS7003;65043;48.392;-4.472;2023-05-20T04:12:43;29.75;23.00;14.25
76238;PMS7003;65043;48.392;-4.472;2023-05-20T04:15:08;21.00;18.25;13.25
76238;PMS7003;65043;48.392;-4.472;2023-05-20T04:17:34;19.75;19.50;12.75
76238;PMS7003;65043;48.392;-4.472;2023-05-20T04:20:02;28.75;25.00;17.25
76238;PMS7003;65043;48.392;-4.472;2023-05-20T04:22:30;24.75;21.25;15.00
76238;PMS7003;65043;48.392;-4.472;2023-05-20T04:24:56;24.50;20.25;13.00
76238;PMS7003;65043;48.392;-4.472;2023-05-20T04:27:21;22.00;21.25;13.00
76238;PMS7003;65043;48.392;-4.472;2023-05-20T04:29:47;23.25;22.00;14.00
76238;PMS7003;65043;48.392;-4.472;2023-05-20T04:32:13;28.75;26.00;17.00
76238;PMS7003;65043;48.392;-4.472;2023-05-20T04:34:44;24.75;20.50;14.50
76238;PMS7003;65043;48.392;-4.472;2023-05-20T04:37:10;25.50;21.25;15.00
76238;PMS7003;65043;48.392;-4.472;2023-05-20T04:39:37;27.75;22.75;16.25
76238;PMS7003;65043;48.392;-4.472;2023-05-20T04:42:03;24.75;23.00;16.00
76238;PMS7003;65043;48.392;-4.472;2023-05-20T04:44:29;23.50;22.50;14.75
76238;PMS7003;65043;48.392;-4.472;2023-05-20T04:46:55;25.25;21.50;13.50
76238;PMS7003;65043;48.392;-4.472;2023-05-20T04:49:23;25.00;20.75;16.00
76238;PMS7003;65043;48.392;-4.472;2023-05-20T04:51:55;26.75;23.25;16.50
76238;PMS7003;65043;48.392;-4.472;2023-05-20T04:54:20;26.50;24.25;16.75
76238;PMS7003;65043;48.392;-4.472;2023-05-20T04:56:46;27.25;25.25;16.75
76238;PMS7003;65043;48.392;-4.472;2023-05-20T04:59:11;25.00;22.75;15.50
76238;PMS7003;65043;48.392;-4.472;2023-05-20T05:01:37;25.00;24.00;16.25
76238;PMS7003;65043;48.392;-4.472;2023-05-20T05:04:02;31.25;27.75;18.75
76238;PMS7003;65043;48.392;-4.472;2023-05-20T05:06:28;27.00;24.50;16.75
76238;PMS7003;65043;48.392;-4.472;2023-05-20T05:08:53;28.25;24.25;17.00
76238;PMS7003;65043;48.392;-4.472;2023-05-20T05:11:19;25.00;23.50;16.50
76238;PMS7003;65043;48.392;-4.472;2023-05-20T05:13:45;32.75;28.25;18.50
76238;PMS7003;65043;48.392;-4.472;2023-05-20T05:16:11;29.50;25.50;16.75
76238;PMS7003;65043;48.392;-4.472;2023-05-20T05:18:36;26.50;24.75;16.00
76238;PMS7003;65043;48.392;-4.472;2023-05-20T05:21:02;36.50;31.25;19.25
76238;PMS7003;65043;48.392;-4.472;2023-05-20T05:23:28;31.00;29.25;17.50
76238;PMS7003;65043;48.392;-4.472;2023-05-20T05:25:54;32.25;26.25;18.75
76238;PMS7003;65043;48.392;-4.472;2023-05-20T05:28:19;27.25;26.50;19.00
76238;PMS7003;65043;48.392;-4.472;2023-05-20T05:30:45;24.00;22.00;15.25
76238;PMS7003;65043;48.392;-4.472;2023-05-20T05:33:10;28.75;26.75;17.00
76238;PMS7003;65043;48.392;-4.472;2023-05-20T05:35:37;28.75;27.00;15.25
76238;PMS7003;65043;48.392;-4.472;2023-05-20T05:38:03;29.00;26.00;16.75
76238;PMS7003;65043;48.392;-4.472;2023-05-20T05:40:28;27.50;25.75;17.75
76238;PMS7003;65043;48.392;-4.472;2023-05-20T05:42:53;33.75;27.25;17.75
76238;PMS7003;65043;48.392;-4.472;2023-05-20T05:45:19;25.25;21.50;14.75
76238;PMS7003;65043;48.392;-4.472;2023-05-20T05:47:44;30.00;24.75;17.00
76238;PMS7003;65043;48.392;-4.472;2023-05-20T05:50:09;27.00;24.25;16.50
76238;PMS7003;65043;48.392;-4.472;2023-05-20T05:52:35;27.50;25.75;16.00
76238;PMS7003;65043;48.392;-4.472;2023-05-20T05:55:01;27.00;25.25;16.00
76238;PMS7003;65043;48.392;-4.472;2023-05-20T05:57:27;32.00;27.50;17.00
76238;PMS7003;65043;48.392;-4.472;2023-05-20T05:59:52;28.00;25.25;16.75
76238;PMS7003;65043;48.392;-4.472;2023-05-20T06:02:17;33.75;29.75;18.00
76238;PMS7003;65043;48.392;-4.472;2023-05-20T06:04:43;29.75;23.75;18.00
76238;PMS7003;65043;48.392;-4.472;2023-05-20T06:07:08;27.00;25.50;15.50
76238;PMS7003;65043;48.392;-4.472;2023-05-20T06:09:34;24.75;21.75;16.00
76238;PMS7003;65043;48.392;-4.472;2023-05-20T06:12:00;27.50;22.75;15.00
76238;PMS7003;65043;48.392;-4.472;2023-05-20T06:14:26;30.25;25.25;17.00
76238;PMS7003;65043;48.392;-4.472;2023-05-20T06:16:51;28.00;24.75;15.50
76238;PMS7003;65043;48.392;-4.472;2023-05-20T06:19:17;23.00;23.00;15.75
76238;PMS7003;65043;48.392;-4.472;2023-05-20T06:21:42;26.00;23.25;16.25
76238;PMS7003;65043;48.392;-4.472;2023-05-20T06:24:07;28.25;25.25;15.50
76238;PMS7003;65043;48.392;-4.472;2023-05-20T06:26:33;28.75;24.25;16.50
76238;PMS7003;65043;48.392;-4.472;2023-05-20T06:28:58;28.25;25.75;17.75
76238;PMS7003;65043;48.392;-4.472;2023-05-20T06:31:24;24.00;21.50;14.75
76238;PMS7003;65043;48.392;-4.472;2023-05-20T06:33:49;24.75;22.50;16.25
76238;PMS7003;65043;48.392;-4.472;2023-05-20T06:36:15;26.00;22.50;15.75
76238;PMS7003;65043;48.392;-4.472;2023-05-20T06:38:41;21.75;19.25;14.50
76238;PMS7003;65043;48.392;-4.472;2023-05-20T06:41:07;30.25;23.50;15.50
76238;PMS7003;65043;48.392;-4.472;2023-05-20T06:43:32;26.50;25.00;16.25
76238;PMS7003;65043;48.392;-4.472;2023-05-20T06:45:58;31.50;26.25;17.25
76238;PMS7003;65043;48.392;-4.472;2023-05-20T06:48:23;26.00;21.00;12.50
76238;PMS7003;65043;48.392;-4.472;2023-05-20T06:51:00;27.75;24.75;17.00
76238;PMS7003;65043;48.392;-4.472;2023-05-20T06:53:26;30.75;29.25;19.75
76238;PMS7003;65043;48.392;-4.472;2023-05-20T06:55:54;33.75;30.75;19.25
76238;PMS7003;65043;48.392;-4.472;2023-05-20T06:58:20;32.50;28.75;18.75
76238;PMS7003;65043;48.392;-4.472;2023-05-20T07:00:45;29.50;26.50;17.75
76238;PMS7003;65043;48.392;-4.472;2023-05-20T07:03:11;21.50;17.25;9.25
76238;PMS7003;65043;48.392;-4.472;2023-05-20T07:05:37;24.25;22.75;16.00
76238;PMS7003;65043;48.392;-4.472;2023-05-20T07:08:02;24.75;21.50;16.50
76238;PMS7003;65043;48.392;-4.472;2023-05-20T07:10:28;28.00;25.25;16.25
76238;PMS7003;65043;48.392;-4.472;2023-05-20T07:12:53;30.00;26.50;18.25
76238;PMS7003;65043;48.392;-4.472;2023-05-20T07:15:19;20.50;20.00;12.50
76238;PMS7003;65043;48.392;-4.472;2023-05-20T07:17:44;26.25;20.25;15.00
76238;PMS7003;65043;48.392;-4.472;2023-05-20T07:20:10;25.25;22.25;15.00
76238;PMS7003;65043;48.392;-4.472;2023-05-20T07:22:35;22.00;19.75;14.25
76238;PMS7003;65043;48.392;-4.472;2023-05-20T07:25:01;22.25;21.75;14.75
76238;PMS7003;65043;48.392;-4.472;2023-05-20T07:27:27;25.50;23.50;15.25
76238;PMS7003;65043;48.392;-4.472;2023-05-20T07:29:52;26.75;24.00;16.00
76238;PMS7003;65043;48.392;-4.472;2023-05-20T07:32:18;25.75;25.25;15.75
76238;PMS7003;65043;48.392;-4.472;2023-05-20T07:34:43;24.75;24.75;18.25
76238;PMS7003;65043;48.392;-4.472;2023-05-20T07:37:08;29.25;25.50;17.00
76238;PMS7003;65043;48.392;-4.472;2023-05-20T07:39:36;28.50;26.00;16.00
76238;PMS7003;65043;48.392;-4.472;2023-05-20T07:42:02;37.00;24.75;15.75
76238;PMS7003;65043;48.392;-4.472;2023-05-20T07:44:28;30.50;25.00;17.00
76238;PMS7003;65043;48.392;-4.472;2023-05-20T07:46:53;30.25;27.50;16.75
76238;PMS7003;65043;48.392;-4.472;2023-05-20T07:49:20;29.75;26.75;16.75
76238;PMS7003;65043;48.392;-4.472;2023-05-20T07:51:45;31.50;26.00;16.25
76238;PMS7003;65043;48.392;-4.472;2023-05-20T07:54:11;28.50;24.25;15.00
76238;PMS7003;65043;48.392;-4.472;2023-05-20T07:56:36;24.25;22.75;15.25
76238;PMS7003;65043;48.392;-4.472;2023-05-20T07:59:02;24.25;21.50;14.50
76238;PMS7003;65043;48.392;-4.472;2023-05-20T08:01:28;25.25;24.25;16.25
76238;PMS7003;65043;48.392;-4.472;2023-05-20T08:03:53;30.00;27.25;16.50
76238;PMS7003;65043;48.392;-4.472;2023-05-20T08:06:19;27.50;22.00;14.00
76238;PMS7003;65043;48.392;-4.472;2023-05-20T08:08:45;31.75;24.50;15.50
76238;PMS7003;65043;48.392;-4.472;2023-05-20T08:11:12;26.75;24.75;16.25
76238;PMS7003;65043;48.392;-4.472;2023-05-20T08:13:37;23.00;19.50;14.25
76238;PMS7003;65043;48.392;-4.472;2023-05-20T08:16:03;23.25;22.25;13.50
76238;PMS7003;65043;48.392;-4.472;2023-05-20T08:18:30;21.50;19.75;13.75
76238;PMS7003;65043;48.392;-4.472;2023-05-20T08:20:56;28.25;22.25;12.75
76238;PMS7003;65043;48.392;-4.472;2023-05-20T08:23:22;22.25;19.75;10.50
76238;PMS7003;65043;48.392;-4.472;2023-05-20T08:25:48;20.25;17.00;13.25
76238;PMS7003;65043;48.392;-4.472;2023-05-20T08:28:13;22.25;20.75;12.50
76238;PMS7003;65043;48.392;-4.472;2023-05-20T08:30:39;19.00;18.25;12.00
76238;PMS7003;65043;48.392;-4.472;2023-05-20T08:33:05;24.75;20.25;13.50
76238;PMS7003;65043;48.392;-4.472;2023-05-20T08:35:31;17.00;15.00;11.25
76238;PMS7003;65043;48.392;-4.472;2023-05-20T08:37:56;22.50;17.25;11.25
76238;PMS7003;65043;48.392;-4.472;2023-05-20T08:40:22;17.25;15.50;10.50
76238;PMS7003;65043;48.392;-4.472;2023-05-20T08:42:48;19.50;16.50;9.50
76238;PMS7003;65043;48.392;-4.472;2023-05-20T08:45:19;20.75;19.00;10.75
76238;PMS7003;65043;48.392;-4.472;2023-05-20T08:47:45;19.50;16.00;11.00
76238;PMS7003;65043;48.392;-4.472;2023-05-20T08:50:11;21.75;17.75;11.75
76238;PMS7003;65043;48.392;-4.472;2023-05-20T08:52:43;22.50;19.50;10.75
76238;PMS7003;65043;48.392;-4.472;2023-05-20T08:55:12;21.50;16.75;10.50
76238;PMS7003;65043;48.392;-4.472;2023-05-20T08:57:40;23.25;18.25;11.00
76238;PMS7003;65043;48.392;-4.472;2023-05-20T09:00:09;20.00;17.50;10.50
76238;PMS7003;65043;48.392;-4.472;2023-05-20T09:02:40;21.75;16.50;10.75
76238;PMS7003;65043;48.392;-4.472;2023-05-20T09:05:06;16.00;15.50;11.00
76238;PMS7003;65043;48.392;-4.472;2023-05-20T09:07:33;14.75;13.00;9.25
76238;PMS7003;65043;48.392;-4.472;2023-05-20T09:09:58;18.50;18.00;12.25
76238;PMS7003;65043;48.392;-4.472;2023-05-20T09:12:24;18.75;16.50;13.50
76238;PMS7003;65043;48.392;-4.472;2023-05-20T09:14:49;18.00;18.00;13.00
76238;PMS7003;65043;48.392;-4.472;2023-05-20T09:17:15;17.25;15.25;10.00
76238;PMS7003;65043;48.392;-4.472;2023-05-20T09:19:42;20.00;17.75;10.75
76238;PMS7003;65043;48.392;-4.472;2023-05-20T09:22:07;16.50;14.00;9.50
76238;PMS7003;65043;48.392;-4.472;2023-05-20T09:24:33;20.25;17.00;9.75
76238;PMS7003;65043;48.392;-4.472;2023-05-20T09:26:58;19.25;15.75;10.50
76238;PMS7003;65043;48.392;-4.472;2023-05-20T09:29:24;17.75;16.00;9.00
76238;PMS7003;65043;48.392;-4.472;2023-05-20T09:31:50;13.25;10.50;7.75
76238;PMS7003;65043;48.392;-4.472;2023-05-20T09:34:17;12.50;10.25;7.50
76238;PMS7003;65043;48.392;-4.472;2023-05-20T09:36:44;11.50;11.50;9.00
76238;PMS7003;65043;48.392;-4.472;2023-05-20T09:39:15;9.50;9.50;7.00
76238;PMS7003;65043;48.392;-4.472;2023-05-20T09:44:31;9.00;8.25;5.75
76238;PMS7003;65043;48.392;-4.472;2023-05-20T09:46:57;10.00;7.25;5.50
76238;PMS7003;65043;48.392;-4.472;2023-05-20T09:49:25;9.25;7.50;5.50
76238;PMS7003;65043;48.392;-4.472;2023-05-20T09:51:52;9.50;7.50;4.75
76238;PMS7003;65043;48.392;-4.472;2023-05-20T09:54:19;6.75;6.50;5.00
76238;PMS7003;65043;48.392;-4.472;2023-05-20T09:56:45;8.00;6.75;4.25
76238;PMS7003;65043;48.392;-4.472;2023-05-20T09:59:11;5.25;4.50;2.00
76238;PMS7003;65043;48.392;-4.472;2023-05-20T10:01:39;5.50;5.50;3.00
76238;PMS7003;65043;48.392;-4.472;2023-05-20T10:04:05;9.50;7.00;5.75
76238;PMS7003;65043;48.392;-4.472;2023-05-20T10:06:37;8.75;6.75;4.50
76238;PMS7003;65043;48.392;-4.472;2023-05-20T10:09:26;13.75;7.75;5.50
76238;PMS7003;65043;48.392;-4.472;2023-05-20T10:15:35;9.00;5.50;4.25
76238;PMS7003;65043;48.392;-4.472;2023-05-20T10:18:20;7.75;5.75;3.50
76238;PMS7003;65043;48.392;-4.472;2023-05-20T10:20:58;7.00;6.00;3.00
76238;PMS7003;65043;48.392;-4.472;2023-05-20T10:23:28;7.00;7.00;4.75
76238;PMS7003;65043;48.392;-4.472;2023-05-20T10:25:55;4.00;4.00;2.25
76238;PMS7003;65043;48.392;-4.472;2023-05-20T10:30:58;10.50;6.75;3.75
76238;PMS7003;65043;48.392;-4.472;2023-05-20T10:33:25;7.00;6.00;3.75
76238;PMS7003;65043;48.392;-4.472;2023-05-20T10:35:51;9.75;6.25;3.75
76238;PMS7003;65043;48.392;-4.472;2023-05-20T10:38:18;6.50;6.00;4.25
76238;PMS7003;65043;48.392;-4.472;2023-05-20T10:40:45;7.00;4.50;3.00
76238;PMS7003;65043;48.392;-4.472;2023-05-20T10:43:15;5.50;4.25;3.00
76238;PMS7003;65043;48.392;-4.472;2023-05-20T10:45:53;8.00;6.00;4.25
76238;PMS7003;65043;48.392;-4.472;2023-05-20T10:50:51;7.25;5.50;3.00
76238;PMS7003;65043;48.392;-4.472;2023-05-20T10:53:20;4.25;4.25;3.00
76238;PMS7003;65043;48.392;-4.472;2023-05-20T10:55:48;5.75;4.50;2.25
76238;PMS7003;65043;48.392;-4.472;2023-05-20T10:58:16;6.75;5.00;3.50
76238;PMS7003;65043;48.392;-4.472;2023-05-20T11:00:43;6.75;5.75;3.25
76238;PMS7003;65043;48.392;-4.472;2023-05-20T11:03:10;8.00;6.25;3.00
76238;PMS7003;65043;48.392;-4.472;2023-05-20T11:05:38;4.75;3.75;2.50
76238;PMS7003;65043;48.392;-4.472;2023-05-20T11:08:05;8.75;6.50;4.25
76238;PMS7003;65043;48.392;-4.472;2023-05-20T11:10:32;7.25;4.00;3.00
76238;PMS7003;65043;48.392;-4.472;2023-05-20T11:12:59;9.25;8.50;4.25
76238;PMS7003;65043;48.392;-4.472;2023-05-20T11:15:26;4.50;4.25;3.50
76238;PMS7003;65043;48.392;-4.472;2023-05-20T11:17:53;7.00;5.75;3.50
76238;PMS7003;65043;48.392;-4.472;2023-05-20T11:20:25;7.25;6.75;4.50
76238;PMS7003;65043;48.392;-4.472;2023-05-20T11:22:51;6.25;6.25;3.25
76238;PMS7003;65043;48.392;-4.472;2023-05-20T11:25:17;9.25;6.25;4.25
76238;PMS7003;65043;48.392;-4.472;2023-05-20T11:27:43;9.50;7.00;4.25
76238;PMS7003;65043;48.392;-4.472;2023-05-20T11:30:10;7.25;5.25;2.75
76238;PMS7003;65043;48.392;-4.472;2023-05-20T11:32:41;10.75;8.50;5.50
76238;PMS7003;65043;48.392;-4.472;2023-05-20T11:35:18;7.50;6.00;4.25
76238;PMS7003;65043;48.392;-4.472;2023-05-20T11:37:52;9.25;9.25;6.50
76238;PMS7003;65043;48.392;-4.472;2023-05-20T11:40:22;9.00;7.25;5.75
76238;PMS7003;65043;48.392;-4.472;2023-05-20T11:42:51;6.50;6.50;4.25
76238;PMS7003;65043;48.392;-4.472;2023-05-20T11:45:17;11.50;9.50;6.50
76238;PMS7003;65043;48.392;-4.472;2023-05-20T11:47:43;7.00;7.00;4.75
76238;PMS7003;65043;48.392;-4.472;2023-05-20T11:50:08;8.75;7.75;6.50
76238;PMS7003;65043;48.392;-4.472;2023-05-20T11:52:34;8.75;7.00;5.50
76238;PMS7003;65043;48.392;-4.472;2023-05-20T11:55:00;11.75;8.50;6.00
76238;PMS7003;65043;48.392;-4.472;2023-05-20T11:57:25;10.75;9.25;5.75
76238;PMS7003;65043;48.392;-4.472;2023-05-20T11:59:51;12.50;9.00;5.25
76238;PMS7003;65043;48.392;-4.472;2023-05-20T12:02:16;8.00;7.50;6.00
76238;PMS7003;65043;48.392;-4.472;2023-05-20T12:04:44;8.00;6.50;5.25
76238;PMS7003;65043;48.392;-4.472;2023-05-20T12:07:10;10.50;9.00;6.00
76238;PMS7003;65043;48.392;-4.472;2023-05-20T12:09:35;12.50;9.00;6.00
76238;PMS7003;65043;48.392;-4.472;2023-05-20T12:12:00;12.25;11.00;7.50
76238;PMS7003;65043;48.392;-4.472;2023-05-20T12:14:26;10.00;10.00;6.75
76238;PMS7003;65043;48.392;-4.472;2023-05-20T12:16:51;11.00;9.00;6.25
76238;PMS7003;65043;48.392;-4.472;2023-05-20T12:19:17;11.75;10.75;7.50
76238;PMS7003;65043;48.392;-4.472;2023-05-20T12:21:43;12.75;11.75;7.75
76238;PMS7003;65043;48.392;-4.472;2023-05-20T12:24:11;14.75;11.25;7.50
76238;PMS7003;65043;48.392;-4.472;2023-05-20T12:26:36;15.50;14.00;10.50
76238;PMS7003;65043;48.392;-4.472;2023-05-20T12:29:02;10.75;7.50;5.25
76238;PMS7003;65043;48.392;-4.472;2023-05-20T12:31:27;15.50;13.00;9.50
76238;PMS7003;65043;48.392;-4.472;2023-05-20T12:33:53;11.50;9.00;6.50
76238;PMS7003;65043;48.392;-4.472;2023-05-20T12:36:18;13.25;12.50;7.25
76238;PMS7003;65043;48.392;-4.472;2023-05-20T12:38:43;12.00;8.75;7.00
76238;PMS7003;65043;48.392;-4.472;2023-05-20T12:41:09;11.75;9.50;7.00
76238;PMS7003;65043;48.392;-4.472;2023-05-20T12:43:34;10.50;10.00;6.00
76238;PMS7003;65043;48.392;-4.472;2023-05-20T12:46:01;14.50;9.75;6.75
76238;PMS7003;65043;48.392;-4.472;2023-05-20T12:48:27;15.25;12.25;7.50
76238;PMS7003;65043;48.392;-4.472;2023-05-20T12:50:53;12.00;8.25;6.50
76238;PMS7003;65043;48.392;-4.472;2023-05-20T12:53:18;9.25;9.25;6.75
76238;PMS7003;65043;48.392;-4.472;2023-05-20T12:55:43;12.00;10.75;7.00
76238;PMS7003;65043;48.392;-4.472;2023-05-20T12:58:09;11.75;9.00;6.75
76238;PMS7003;65043;48.392;-4.472;2023-05-20T13:00:34;14.75;12.25;7.50
76238;PMS7003;65043;48.392;-4.472;2023-05-20T13:03:00;13.25;10.00;5.00
76238;PMS7003;65043;48.392;-4.472;2023-05-20T13:05:25;14.25;8.75;7.25
76238;PMS7003;65043;48.392;-4.472;2023-05-20T13:07:51;10.75;9.50;6.75
76238;PMS7003;65043;48.392;-4.472;2023-05-20T13:10:16;11.25;10.00;7.00
76238;PMS7003;65043;48.392;-4.472;2023-05-20T13:12:42;9.25;9.25;6.50
76238;PMS7003;65043;48.392;-4.472;2023-05-20T13:15:10;10.75;9.75;6.25
76238;PMS7003;65043;48.392;-4.472;2023-05-20T13:17:37;8.75;8.75;6.25
76238;PMS7003;65043;48.392;-4.472;2023-05-20T13:20:03;11.25;9.00;6.25
76238;PMS7003;65043;48.392;-4.472;2023-05-20T13:22:29;7.75;7.00;4.50
76238;PMS7003;65043;48.392;-4.472;2023-05-20T13:24:55;10.50;8.75;5.25
76238;PMS7003;65043;48.392;-4.472;2023-05-20T13:27:21;14.25;8.25;5.25
76238;PMS7003;65043;48.392;-4.472;2023-05-20T13:29:46;8.00;8.00;5.00
76238;PMS7003;65043;48.392;-4.472;2023-05-20T13:32:11;8.25;7.00;4.50
76238;PMS7003;65043;48.392;-4.472;2023-05-20T13:34:37;11.00;9.25;6.25
76238;PMS7003;65043;48.392;-4.472;2023-05-20T13:37:03;8.75;6.50;5.00
76238;PMS7003;65043;48.392;-4.472;2023-05-20T13:39:29;11.75;9.50;5.50
76238;PMS7003;65043;48.392;-4.472;2023-05-20T13:41:54;10.25;8.00;5.25
76238;PMS7003;65043;48.392;-4.472;2023-05-20T13:44:20;10.00;7.00;5.00
76238;PMS7003;65043;48.392;-4.472;2023-05-20T13:46:45;7.75;6.75;4.25
76238;PMS7003;65043;48.392;-4.472;2023-05-20T13:49:11;8.50;6.75;5.00